createdAt,value
2023-05-05T00:01:25.672Z,101924.91
2023-05-05T00:03:52.797Z,101943.16
2023-05-05T00:06:19.695Z,101956.91
2023-05-05T00:08:46.566Z,101897.09
2023-05-05T00:11:13.176Z,101948.59
2023-05-05T00:13:39.776Z,101949.44
2023-05-05T00:16:06.607Z,101955.84
2023-05-05T00:18:34.043Z,101767.16
2023-05-05T00:21:01.096Z,101895.94
2023-05-05T00:23:27.755Z,101947.44
2023-05-05T00:25:54.342Z,101944.66
2023-05-05T00:28:20.927Z,101942.06
2023-05-05T00:30:47.548Z,101943.34
2023-05-05T00:33:14.158Z,101949.25
2023-05-05T00:35:40.864Z,101925.59
2023-05-05T00:38:07.546Z,101928.53
2023-05-05T00:40:34.129Z,101890.97
2023-05-05T00:43:00.863Z,101934.09
2023-05-05T00:45:27.674Z,101925.94
2023-05-05T00:47:57.099Z,101927.50
2023-05-05T00:50:26.659Z,101927.25
2023-05-05T00:52:55.582Z,101929.50
2023-05-05T00:55:22.755Z,101865.31
2023-05-05T00:57:49.953Z,101933.69
2023-05-05T01:00:17.020Z,101929.53
2023-05-05T01:02:44.818Z,101856.34
2023-05-05T01:05:13.871Z,101921.22
2023-05-05T01:07:43.637Z,101924.97
2023-05-05T01:10:20.457Z,101928.81
2023-05-05T01:13:14.145Z,101925.34
2023-05-05T01:16:05.413Z,101923.00
2023-05-05T01:18:46.987Z,101921.50
2023-05-05T01:21:18.651Z,101892.84
2023-05-05T01:24:11.008Z,101914.00
2023-05-05T01:27:01.913Z,101918.44
2023-05-05T01:29:46.831Z,101916.53
2023-05-05T01:32:16.038Z,101898.88
2023-05-05T01:34:53.877Z,101915.28
2023-05-05T01:37:29.230Z,101913.09
2023-05-05T01:39:59.628Z,101919.59
2023-05-05T01:42:27.977Z,101893.84
2023-05-05T01:44:55.028Z,101915.59
2023-05-05T01:47:23.564Z,101858.22
2023-05-05T01:49:51.507Z,101892.31
2023-05-05T01:52:19.135Z,101911.69
2023-05-05T01:54:48.075Z,101919.72
2023-05-05T01:57:15.783Z,101901.94
2023-05-05T01:59:42.626Z,101904.53
2023-05-05T02:02:11.646Z,101909.72
2023-05-05T02:04:44.464Z,101896.34
2023-05-05T02:07:13.145Z,101904.22
2023-05-05T02:09:42.083Z,101856.41
2023-05-05T02:12:10.359Z,101899.44
2023-05-05T02:14:38.185Z,101890.00
2023-05-05T02:17:05.263Z,101896.78
2023-05-05T02:19:39.870Z,101859.16
2023-05-05T02:22:06.866Z,101874.72
2023-05-05T02:24:33.825Z,101887.25
2023-05-05T02:27:03.995Z,101882.88
2023-05-05T02:29:39.448Z,101884.16
2023-05-05T02:32:12.944Z,101893.75
2023-05-05T02:34:41.153Z,101886.19
2023-05-05T02:37:12.879Z,101883.09
2023-05-05T02:39:47.415Z,101881.09
2023-05-05T02:42:19.758Z,101875.22
2023-05-05T02:44:47.828Z,101865.13
2023-05-05T02:47:14.359Z,101873.69
2023-05-05T02:49:41.142Z,101875.31
2023-05-05T02:52:07.814Z,101875.78
2023-05-05T02:54:34.470Z,101858.38
2023-05-05T02:57:01.706Z,101876.84
2023-05-05T02:59:38.303Z,101864.66
2023-05-05T03:02:18.542Z,101863.19
2023-05-05T03:05:06.768Z,101860.78
2023-05-05T03:08:02.282Z,101823.50
2023-05-05T03:10:36.620Z,101859.00
2023-05-05T03:13:04.956Z,101869.53
2023-05-05T03:15:35.390Z,101860.03
2023-05-05T03:18:03.229Z,101810.56
2023-05-05T03:20:30.614Z,101795.84
2023-05-05T03:22:57.393Z,101809.22
2023-05-05T03:25:41.879Z,101867.41
2023-05-05T03:28:08.472Z,101861.56
2023-05-05T03:30:35.079Z,101835.91
2023-05-05T03:33:01.678Z,101843.97
2023-05-05T03:35:28.349Z,101844.66
2023-05-05T03:37:55.748Z,101847.66
2023-05-05T03:40:36.309Z,101840.34
2023-05-05T03:43:09.980Z,101836.88
2023-05-05T03:45:36.575Z,101825.19
2023-05-05T03:48:03.506Z,101838.91
2023-05-05T03:50:30.189Z,101835.06
2023-05-05T03:52:56.783Z,101841.66
2023-05-05T03:55:23.463Z,101839.47
2023-05-05T03:57:50.054Z,101846.19
2023-05-05T04:00:16.939Z,101834.88
2023-05-05T04:02:43.967Z,101857.06
2023-05-05T04:05:10.731Z,101827.47
2023-05-05T04:07:37.256Z,101850.31
2023-05-05T04:10:04.061Z,101839.56
2023-05-05T04:12:30.640Z,101863.19
2023-05-05T04:14:57.203Z,101851.38
2023-05-05T04:17:23.861Z,101848.88
2023-05-05T04:19:53.544Z,101847.72
2023-05-05T04:22:20.253Z,101808.66
2023-05-05T04:24:47.419Z,101848.31
2023-05-05T04:27:14.298Z,101856.31
2023-05-05T04:29:40.833Z,101854.00
2023-05-05T04:32:07.427Z,101855.81
2023-05-05T04:34:34.025Z,101858.00
2023-05-05T04:37:00.666Z,101841.56
2023-05-05T04:39:27.660Z,101858.88
2023-05-05T04:41:54.217Z,101853.13
2023-05-05T04:44:20.835Z,101857.34
2023-05-05T04:46:47.383Z,101860.50
2023-05-05T04:49:13.987Z,101814.41
2023-05-05T04:51:43.637Z,101813.34
2023-05-05T04:54:10.359Z,101864.56
2023-05-05T04:56:37.276Z,101809.41
2023-05-05T04:59:03.871Z,101873.66
2023-05-05T05:01:30.687Z,101803.72
2023-05-05T05:03:57.520Z,101806.97
2023-05-05T05:06:24.322Z,101869.25
2023-05-05T05:08:50.901Z,101883.56
2023-05-05T05:11:17.552Z,101876.56
2023-05-05T05:13:44.156Z,101875.84
2023-05-05T05:16:11.632Z,101865.47
2023-05-05T05:18:38.255Z,101856.66
2023-05-05T05:21:04.935Z,101859.59
2023-05-05T05:23:31.548Z,101870.50
2023-05-05T05:25:58.180Z,101846.94
2023-05-05T05:28:24.811Z,101857.53
2023-05-05T05:30:52.241Z,101857.22
2023-05-05T05:33:19.063Z,101856.34
2023-05-05T05:35:46.001Z,101848.47
2023-05-05T05:38:12.603Z,101838.84
2023-05-05T05:40:39.215Z,101848.06
2023-05-05T05:43:05.816Z,101855.38
2023-05-05T05:45:32.408Z,101855.13
2023-05-05T05:47:59.059Z,101868.41
2023-05-05T05:50:28.736Z,101872.00
2023-05-05T05:52:55.853Z,101868.59
2023-05-05T05:55:22.649Z,101877.00
2023-05-05T05:57:49.282Z,101883.25
2023-05-05T06:00:16.260Z,101881.63
2023-05-05T06:02:43.036Z,101873.41
2023-05-05T06:05:09.853Z,101886.25
2023-05-05T06:07:36.502Z,101836.88
2023-05-05T06:10:18.359Z,101864.09
2023-05-05T06:12:45.632Z,101856.63
2023-05-05T06:15:12.240Z,101853.81
2023-05-05T06:17:38.940Z,101786.56
2023-05-05T06:20:07.175Z,101852.06
2023-05-05T06:22:34.009Z,101838.75
2023-05-05T06:25:00.783Z,101847.78
2023-05-05T06:27:27.327Z,101838.09
2023-05-05T06:29:53.914Z,101832.16
2023-05-05T06:32:20.587Z,101789.03
2023-05-05T06:34:48.413Z,101846.31
2023-05-05T06:37:15.104Z,101799.00
2023-05-05T06:39:41.876Z,101845.31
2023-05-05T06:42:08.481Z,101841.75
2023-05-05T06:44:36.582Z,101795.03
2023-05-05T06:47:06.771Z,101838.50
2023-05-05T06:49:33.469Z,101835.78
2023-05-05T06:52:00.365Z,101815.19
2023-05-05T06:54:27.041Z,101707.66
2023-05-05T06:56:53.629Z,101821.81
2023-05-05T06:59:20.235Z,101835.63
2023-05-05T07:01:46.946Z,101836.75
2023-05-05T07:04:13.792Z,101836.50
2023-05-05T07:06:40.510Z,101773.00
2023-05-05T07:09:07.180Z,101827.03
2023-05-05T07:11:33.986Z,101819.91
2023-05-05T07:14:00.550Z,101779.31
2023-05-05T07:16:27.599Z,101826.63
2023-05-05T07:18:54.266Z,101826.53
2023-05-05T07:21:21.127Z,101789.78
2023-05-05T07:23:47.975Z,101847.00
2023-05-05T07:26:15.639Z,101837.31
2023-05-05T07:28:43.287Z,101850.38
2023-05-05T07:31:10.008Z,101839.06
2023-05-05T07:33:36.746Z,101838.25
2023-05-05T07:36:03.539Z,101850.97
2023-05-05T07:38:30.128Z,101809.75
2023-05-05T07:40:56.705Z,101857.81
2023-05-05T07:43:23.344Z,101861.50
2023-05-05T07:45:49.974Z,101864.69
2023-05-05T07:48:16.815Z,101870.09
2023-05-05T07:50:43.409Z,101874.19
2023-05-05T07:53:14.226Z,101834.47
2023-05-05T07:55:41.528Z,101872.84
2023-05-05T07:58:08.652Z,101873.59
2023-05-05T08:00:35.785Z,101829.78
2023-05-05T08:03:02.591Z,101854.94
2023-05-05T08:05:29.241Z,101888.88
2023-05-05T08:07:55.925Z,101841.22
2023-05-05T08:10:22.954Z,101806.44
2023-05-05T08:12:49.555Z,101870.47
2023-05-05T08:15:16.329Z,101875.88
2023-05-05T08:17:47.661Z,101868.69
2023-05-05T08:20:15.507Z,101881.63
2023-05-05T08:22:43.095Z,101856.00
2023-05-05T08:25:11.302Z,101887.94
2023-05-05T08:27:39.276Z,101883.50
2023-05-05T08:30:06.847Z,101902.41
2023-05-05T08:32:33.507Z,101837.09
2023-05-05T08:35:03.399Z,101888.94
2023-05-05T08:37:30.116Z,101877.78
2023-05-05T08:39:57.980Z,101870.19
2023-05-05T08:42:36.133Z,101864.72
2023-05-05T08:45:04.831Z,101868.72
2023-05-05T08:47:32.422Z,101861.31
2023-05-05T08:49:59.650Z,101820.88
2023-05-05T08:52:31.769Z,101843.19
2023-05-05T08:55:05.363Z,101822.78
2023-05-05T08:57:46.845Z,101837.09
2023-05-05T09:00:14.353Z,101821.13
2023-05-05T09:02:43.186Z,101828.41
2023-05-05T09:05:10.289Z,101822.38
2023-05-05T09:07:38.544Z,101815.31
2023-05-05T09:10:05.905Z,101808.44
2023-05-05T09:12:32.888Z,101812.19
2023-05-05T09:15:03.669Z,101817.28
2023-05-05T09:17:30.512Z,101809.16
2023-05-05T09:20:05.523Z,101814.75
2023-05-05T09:22:40.656Z,101821.34
2023-05-05T09:25:10.001Z,101812.09
2023-05-05T09:27:38.413Z,101796.41
2023-05-05T09:30:06.236Z,101764.25
2023-05-05T09:32:50.732Z,101810.88
2023-05-05T09:35:18.628Z,101817.38
2023-05-05T09:37:45.685Z,101806.97
2023-05-05T09:40:16.723Z,101807.72
2023-05-05T09:42:44.939Z,101785.13
2023-05-05T09:45:17.855Z,101797.13
2023-05-05T09:47:46.043Z,101764.56
2023-05-05T09:50:19.128Z,101753.22
2023-05-05T09:53:02.638Z,101808.47
2023-05-05T09:55:31.273Z,101805.22
2023-05-05T09:58:17.122Z,101794.53
2023-05-05T10:00:43.826Z,101799.69
2023-05-05T10:03:10.798Z,101771.88
2023-05-05T10:05:57.665Z,101774.66
2023-05-05T10:08:27.246Z,101775.09
2023-05-05T10:10:58.472Z,101779.00
2023-05-05T10:13:25.385Z,101754.00
2023-05-05T10:15:54.777Z,101773.38
2023-05-05T10:18:27.182Z,101767.81
2023-05-05T10:20:59.042Z,101774.53
2023-05-05T10:23:36.140Z,101780.75
2023-05-05T10:26:07.074Z,101761.91
2023-05-05T10:28:41.709Z,101759.19
2023-05-05T10:31:25.124Z,101759.34
2023-05-05T10:33:58.735Z,101767.91
2023-05-05T10:36:25.821Z,101742.28
2023-05-05T10:38:57.982Z,101778.38
2023-05-05T10:41:26.750Z,101766.25
2023-05-05T10:43:57.413Z,101750.59
2023-05-05T10:46:26.963Z,101737.66
2023-05-05T10:49:17.532Z,101781.66
2023-05-05T10:52:00.482Z,101775.91
2023-05-05T10:54:41.973Z,101786.03
2023-05-05T10:57:11.005Z,101778.47
2023-05-05T10:59:37.897Z,101791.94
2023-05-05T11:02:21.703Z,101767.16
2023-05-05T11:05:08.670Z,101775.06
2023-05-05T11:07:38.755Z,101772.59
2023-05-05T11:10:07.946Z,101766.84
2023-05-05T11:13:00.204Z,101752.47
2023-05-05T11:15:26.946Z,101751.72
2023-05-05T11:17:58.183Z,101750.31
2023-05-05T11:20:40.623Z,101740.56
2023-05-05T11:23:07.518Z,101739.13
2023-05-05T11:25:41.256Z,101729.91
2023-05-05T11:28:09.026Z,101718.38
2023-05-05T11:30:36.914Z,101709.38
2023-05-05T11:33:29.183Z,101730.28
2023-05-05T11:35:56.470Z,101734.69
2023-05-05T11:41:19.417Z,101722.34
2023-05-05T11:43:46.156Z,101721.66
2023-05-05T11:46:19.627Z,101718.91
2023-05-05T11:48:47.778Z,101717.31
2023-05-05T11:51:16.323Z,101722.84
2023-05-05T11:53:48.669Z,101723.47
2023-05-05T11:56:20.720Z,101737.06
2023-05-05T11:59:06.997Z,101729.31
2023-05-05T12:01:33.687Z,101729.06
2023-05-05T12:04:00.643Z,101732.47
2023-05-05T12:06:27.825Z,101721.50
2023-05-05T12:08:54.419Z,101719.59
2023-05-05T12:11:21.293Z,101690.59
2023-05-05T12:13:47.859Z,101689.59
2023-05-05T12:16:15.768Z,101708.56
2023-05-05T12:18:42.867Z,101699.00
2023-05-05T12:21:20.117Z,101715.41
2023-05-05T12:23:47.073Z,101677.59
2023-05-05T12:26:30.679Z,101671.94
2023-05-05T12:29:01.696Z,101695.38
2023-05-05T12:31:39.037Z,101693.59
2023-05-05T12:34:06.976Z,101695.13
2023-05-05T12:36:34.338Z,101680.78
2023-05-05T12:39:01.103Z,101696.53
2023-05-05T12:41:28.152Z,101701.63
2023-05-05T12:43:58.758Z,101685.81
2023-05-05T12:46:26.674Z,101710.16
2023-05-05T12:49:07.660Z,101695.94
2023-05-05T12:51:36.135Z,101704.34
2023-05-05T12:54:08.303Z,101712.13
2023-05-05T12:56:38.938Z,101707.09
2023-05-05T12:59:07.810Z,101707.63
2023-05-05T13:01:36.281Z,101655.75
2023-05-05T13:04:14.068Z,101705.31
2023-05-05T13:06:42.814Z,101699.19
2023-05-05T13:09:21.952Z,101631.72
2023-05-05T13:11:48.515Z,101641.41
2023-05-05T13:14:15.139Z,101701.88
2023-05-05T13:16:41.858Z,101687.06
2023-05-05T13:19:08.534Z,101638.09
2023-05-05T13:21:35.273Z,101624.22
2023-05-05T13:24:20.773Z,101676.69
2023-05-05T13:26:49.006Z,101639.53
2023-05-05T13:29:16.974Z,101693.53
2023-05-05T13:31:44.174Z,101696.94
2023-05-05T13:34:11.281Z,101640.03
2023-05-05T13:36:37.957Z,101701.50
2023-05-05T13:39:04.667Z,101691.50
2023-05-05T13:41:31.312Z,101689.22
2023-05-05T13:43:57.930Z,101683.94
2023-05-05T13:46:24.547Z,101678.63
2023-05-05T13:48:56.025Z,101686.59
2023-05-05T13:51:23.113Z,101680.69
2023-05-05T13:53:49.882Z,101656.44
2023-05-05T13:56:18.268Z,101677.63
2023-05-05T13:58:45.126Z,101631.69
2023-05-05T14:01:11.894Z,101657.88
2023-05-05T14:03:39.754Z,101651.69
2023-05-05T14:06:07.679Z,101622.09
2023-05-05T14:08:34.375Z,101628.16
2023-05-05T14:11:01.995Z,101639.16
2023-05-05T14:13:28.673Z,101645.28
2023-05-05T14:15:55.356Z,101644.25
2023-05-05T14:18:23.167Z,101634.34
2023-05-05T14:20:49.856Z,101591.59
2023-05-05T14:23:16.561Z,101644.75
2023-05-05T14:25:43.262Z,101599.41
2023-05-05T14:28:09.925Z,101640.44
2023-05-05T14:30:36.572Z,101643.53
2023-05-05T14:33:03.592Z,101593.88
2023-05-05T14:35:31.218Z,101636.16
2023-05-05T14:37:57.814Z,101635.31
2023-05-05T14:40:24.418Z,101633.34
2023-05-05T14:42:51.289Z,101631.03
2023-05-05T14:45:17.962Z,101610.91
2023-05-05T14:47:45.207Z,101618.63
2023-05-05T14:50:11.864Z,101611.91
2023-05-05T14:52:40.420Z,101612.78
2023-05-05T14:55:08.461Z,101616.94
2023-05-05T14:57:35.246Z,101622.25
2023-05-05T15:00:01.922Z,101622.91
2023-05-05T15:02:28.629Z,101599.66
2023-05-05T15:04:55.301Z,101581.50
2023-05-05T15:07:22.805Z,101602.50
2023-05-05T15:09:49.492Z,101623.19
2023-05-05T15:12:16.201Z,101618.22
2023-05-05T15:14:42.855Z,101564.94
2023-05-05T15:17:09.465Z,101614.22
2023-05-05T15:19:36.263Z,101566.69
2023-05-05T15:22:03.030Z,101607.03
2023-05-05T15:24:30.122Z,101585.84
2023-05-05T15:26:56.929Z,101603.81
2023-05-05T15:29:23.564Z,101547.88
2023-05-05T15:31:50.347Z,101575.84
2023-05-05T15:34:16.987Z,101583.38
2023-05-05T15:36:43.601Z,101565.50
2023-05-05T15:39:10.213Z,101537.78
2023-05-05T15:41:36.947Z,101595.22
2023-05-05T15:44:05.148Z,101541.72
2023-05-05T15:46:33.680Z,101582.72
2023-05-05T15:49:00.465Z,101575.38
2023-05-05T15:51:27.544Z,101586.69
2023-05-05T15:53:55.014Z,101591.22
2023-05-05T15:56:21.769Z,101590.13
2023-05-05T15:58:48.552Z,101595.16
2023-05-05T16:01:15.294Z,101583.25
2023-05-05T16:03:42.110Z,101581.78
2023-05-05T16:06:10.261Z,101580.44
2023-05-05T16:08:37.013Z,101533.56
2023-05-05T16:11:04.272Z,101567.34
2023-05-05T16:13:30.914Z,101578.41
2023-05-05T16:15:57.565Z,101568.88
2023-05-05T16:18:24.177Z,101586.41
2023-05-05T16:20:50.894Z,101577.41
2023-05-05T16:23:18.959Z,101577.53
2023-05-05T16:25:45.622Z,101546.97
2023-05-05T16:28:12.392Z,101575.97
2023-05-05T16:30:39.987Z,101584.25
2023-05-05T16:33:06.931Z,101546.50
2023-05-05T16:35:33.773Z,101590.63
2023-05-05T16:38:00.713Z,101563.19
2023-05-05T16:40:27.264Z,101612.53
2023-05-05T16:42:54.270Z,101561.94
2023-05-05T16:45:21.080Z,101568.25
2023-05-05T16:47:47.830Z,101614.56
2023-05-05T16:50:14.453Z,101616.28
2023-05-05T16:52:41.236Z,101616.16
2023-05-05T16:55:08.318Z,101616.00
2023-05-05T16:57:35.011Z,101587.81
2023-05-05T17:00:01.597Z,101537.81
2023-05-05T17:02:28.192Z,101621.31
2023-05-05T17:04:54.846Z,101612.84
2023-05-05T17:07:21.670Z,101625.84
2023-05-05T17:09:48.270Z,101615.59
2023-05-05T17:12:14.908Z,101426.66
2023-05-05T17:14:42.029Z,101569.81
2023-05-05T17:17:10.039Z,101639.13
2023-05-05T17:19:36.749Z,101623.75
2023-05-05T17:22:03.374Z,101490.97
2023-05-05T17:24:30.067Z,101631.03
2023-05-05T17:26:57.207Z,101636.88
2023-05-05T17:29:24.110Z,101634.66
2023-05-05T17:31:50.773Z,101595.06
2023-05-05T17:34:17.526Z,101625.69
2023-05-05T17:36:44.101Z,101619.56
2023-05-05T17:39:11.610Z,101628.97
2023-05-05T17:41:38.292Z,101622.19
2023-05-05T17:44:05.028Z,101629.38
2023-05-05T17:46:31.850Z,101619.03
2023-05-05T17:48:58.497Z,101616.41
2023-05-05T17:51:25.090Z,101628.06
2023-05-05T17:53:51.715Z,101602.97
2023-05-05T17:56:18.336Z,101620.34
2023-05-05T17:58:45.054Z,101642.47
2023-05-05T18:01:23.604Z,101643.22
2023-05-05T18:03:50.539Z,101616.66
2023-05-05T18:06:17.379Z,101660.00
2023-05-05T18:08:44.812Z,101642.75
2023-05-05T18:11:11.776Z,101599.28
2023-05-05T18:13:39.058Z,101670.91
2023-05-05T18:16:06.410Z,101655.13
2023-05-05T18:18:33.052Z,101670.06
2023-05-05T18:21:00.106Z,101661.09
2023-05-05T18:23:26.861Z,101677.81
2023-05-05T18:25:53.492Z,101693.53
2023-05-05T18:28:20.594Z,101690.72
2023-05-05T18:30:47.303Z,101700.31
2023-05-05T18:33:13.926Z,101674.91
2023-05-05T18:35:40.684Z,101688.91
2023-05-05T18:38:07.313Z,101674.06
2023-05-05T18:40:34.218Z,101628.47
2023-05-05T18:43:00.967Z,101673.72
2023-05-05T18:45:27.621Z,101700.78
2023-05-05T18:47:54.462Z,101697.97
2023-05-05T18:50:21.143Z,101657.63
2023-05-05T18:52:47.927Z,101714.59
2023-05-05T18:55:14.628Z,101725.78
2023-05-05T18:57:41.291Z,101726.50
2023-05-05T19:00:08.392Z,101727.25
2023-05-05T19:02:37.479Z,101677.84
2023-05-05T19:05:04.738Z,101628.59
2023-05-05T19:07:35.027Z,101679.41
2023-05-05T19:10:04.625Z,101644.31
2023-05-05T19:12:31.276Z,101727.47
2023-05-05T19:15:00.542Z,101737.31
2023-05-05T19:17:27.498Z,101691.97
2023-05-05T19:19:54.256Z,101634.53
2023-05-05T19:22:23.217Z,101739.00
2023-05-05T19:24:49.787Z,101609.28
2023-05-05T19:27:17.122Z,101748.91
2023-05-05T19:29:43.996Z,101708.66
2023-05-05T19:32:11.100Z,101751.25
2023-05-05T19:34:37.791Z,101738.94
2023-05-05T19:37:04.490Z,101754.69
2023-05-05T19:39:31.410Z,101747.47
2023-05-05T19:41:58.067Z,101746.81
2023-05-05T19:44:24.667Z,101705.22
2023-05-05T19:46:53.135Z,101741.75
2023-05-05T19:49:20.140Z,101743.69
2023-05-05T19:51:49.831Z,101748.06
2023-05-05T19:54:16.454Z,101748.06
2023-05-05T19:56:43.094Z,101738.25
2023-05-05T19:59:09.675Z,101646.88
2023-05-05T20:01:36.493Z,101584.00
2023-05-05T20:04:03.881Z,101725.22
2023-05-05T20:06:30.748Z,101704.25
2023-05-05T20:08:57.374Z,101731.16
2023-05-05T20:11:25.964Z,101663.50
2023-05-05T20:13:53.458Z,101729.03
2023-05-05T20:16:22.024Z,101699.13
2023-05-05T20:18:49.093Z,101728.03
2023-05-05T20:21:19.495Z,101691.19
2023-05-05T20:23:47.776Z,101660.97
2023-05-05T20:26:14.517Z,101665.13
2023-05-05T20:28:44.166Z,101718.56
2023-05-05T20:31:12.155Z,101668.28
2023-05-05T20:33:38.754Z,101695.19
2023-05-05T20:36:06.243Z,101699.69
2023-05-05T20:38:33.086Z,101665.53
2023-05-05T20:40:59.674Z,101685.66
2023-05-05T20:43:26.484Z,101687.13
2023-05-05T20:45:53.758Z,101510.09
2023-05-05T20:48:20.452Z,101604.75
2023-05-05T20:50:47.067Z,101680.16
2023-05-05T20:53:14.009Z,101654.06
2023-05-05T20:55:41.245Z,101690.75
2023-05-05T20:58:07.951Z,101682.06
2023-05-05T21:00:34.639Z,101623.63
2023-05-05T21:03:02.973Z,101688.06
2023-05-05T21:05:31.698Z,101640.03
2023-05-05T21:08:00.520Z,101614.50
2023-05-05T21:10:28.961Z,101672.94
2023-05-05T21:12:55.761Z,101685.19
2023-05-05T21:15:22.634Z,101655.28
2023-05-05T21:17:49.528Z,101622.50
2023-05-05T21:20:17.115Z,101681.75
2023-05-05T21:22:43.718Z,101672.53
2023-05-05T21:25:15.135Z,101685.66
2023-05-05T21:27:42.410Z,101701.81
2023-05-05T21:30:10.946Z,101696.09
2023-05-05T21:32:38.703Z,101700.97
2023-05-05T21:35:06.972Z,101652.44
2023-05-05T21:37:33.850Z,101686.59
2023-05-05T21:40:00.643Z,101697.09
2023-05-05T21:42:29.529Z,101703.31
2023-05-05T21:44:56.195Z,101705.13
2023-05-05T21:47:22.884Z,101634.13
2023-05-05T21:49:49.548Z,101699.56
2023-05-05T21:52:16.171Z,101698.56
2023-05-05T21:54:42.801Z,101703.00
2023-05-05T21:57:09.477Z,101698.38
2023-05-05T21:59:36.149Z,101665.47
2023-05-05T22:02:02.761Z,101708.41
2023-05-05T22:04:29.470Z,101682.94
2023-05-05T22:06:56.608Z,101678.41
2023-05-05T22:09:23.185Z,101720.13
2023-05-05T22:11:50.954Z,101722.81
2023-05-05T22:14:17.778Z,101735.94
2023-05-05T22:16:44.475Z,101697.25
2023-05-05T22:19:11.057Z,101725.63
2023-05-05T22:21:37.773Z,101723.03
2023-05-05T22:24:05.046Z,101718.53
2023-05-05T22:26:31.568Z,101717.19
2023-05-05T22:28:58.509Z,101711.78
2023-05-05T22:31:25.116Z,101715.16
2023-05-05T22:33:51.707Z,101723.56
2023-05-05T22:36:18.281Z,101731.53
2023-05-05T22:38:44.813Z,101725.31
2023-05-05T22:41:11.560Z,101697.06
2023-05-05T22:43:38.271Z,101719.59
2023-05-05T22:46:05.105Z,101716.44
2023-05-05T22:48:32.015Z,101712.94
2023-05-05T22:50:58.640Z,101722.00
2023-05-05T22:53:25.180Z,101718.38
2023-05-05T22:55:52.213Z,101669.59
2023-05-05T22:58:18.960Z,101719.13
2023-05-05T23:00:45.821Z,101712.00
2023-05-05T23:03:13.293Z,101715.44
2023-05-05T23:05:39.883Z,101716.84
2023-05-05T23:08:06.823Z,101645.41
2023-05-05T23:10:33.436Z,101669.28
2023-05-05T23:13:00.060Z,101699.91
2023-05-05T23:15:26.745Z,101709.19
2023-05-05T23:17:53.398Z,101701.75
2023-05-05T23:20:20.120Z,101703.19
2023-05-05T23:22:46.693Z,101710.72
2023-05-05T23:25:13.221Z,101711.47
2023-05-05T23:27:42.682Z,101713.22
2023-05-05T23:30:09.866Z,101662.94
2023-05-05T23:32:36.483Z,101651.84
2023-05-05T23:35:03.151Z,101716.34
2023-05-05T23:37:29.726Z,101715.50
2023-05-05T23:39:56.777Z,101711.84
2023-05-05T23:42:24.307Z,101715.28
2023-05-05T23:44:50.885Z,101714.38
2023-05-05T23:47:17.498Z,101714.69
2023-05-05T23:49:44.134Z,101712.19
2023-05-05T23:52:11.489Z,101716.53
2023-05-05T23:54:38.152Z,101715.47
2023-05-05T23:57:04.847Z,101716.44
2023-05-05T23:59:31.419Z,101708.81
